Pagina principale
METAR-TAF:

METAR-TAF

Aeroporti :

Aeroporto Internazionale del Bahrein

Bahrain, Bahrain

latitudine: 26-16N, longitudine: 050-39E, altezza: 2 m

Osservazione

Il bollettino è stato emesso 29 minuti fa, alle 19:00 UTC
Vento 9 kt da ovest/nord-ovest
Temperature 34°C
Umidità 60%
Pressione 997 hPa
Visibilità 10 km o più
nessuna nube inferiore a 1500 m e nessun cumulonembo

METAR: OBBI 141900Z 30009KT CAVOK 34/25 Q0997 NOSIG

Ora: 22:29 (19:29 UTC)

Previsione

Il bollettino è stato emesso 2 ore e 26 minuti fa, alle 17:03 UTC
Previsione valida dal 14 alle 18 UTC al 16 alle 00 UTC
Vento 10 kt da nord/nord-ovest
Visibilità 10 km o più
nessuna nube inferiore a 1500 m e nessun cumulonembo
Evoluzione graduale
dal 15 alle 01 UTC al 15 alle 02 UTC
Vento 15 kt da nord/nord-ovest con raffiche fino a 25 kt
Evoluzione graduale
dal 15 alle 14 UTC al 15 alle 16 UTC
Vento 8 kt da nord-ovest

TAF: OBBI 141703Z 1418/1600 33010KT CAVOK BECMG 1501/1502 33015G25KT BECMG 1514/1516 32008KT

Osservazioni e previsioni meteorologiche di più di 4000 aeroporti (messaggi METAR e TAF).

Le stazioni disponibili sono rappresentate dai dischi gialli e rossi sulla carta.

Puntare il mouse per vedere il nome della stazione.

Clicca sopra per visualizzare le osservazioni e previsioni meteorologiche.

Per cambiare la mappa : fare clic sui pulsanti verdi con una croce nera per ingrandire, il pulsante verde con un trattino per diminuire, o sulla freccia verde per le mappe adiacenti.


METAR-TAF: